createdAt,value
2022-09-09T09:26:10.647Z,19.10
2022-09-09T09:28:38.658Z,18.90
2022-09-09T09:31:14.680Z,19.10
2022-09-09T09:33:54.110Z,19.20
2022-09-09T09:36:34.760Z,19.10
2022-09-09T09:41:55.365Z,19.00
2022-09-09T09:44:28.745Z,18.90
2022-09-09T09:47:22.182Z,18.90
2022-09-09T09:50:03.322Z,19.00
2022-09-09T09:52:37.809Z,19.10
2022-09-09T09:55:14.970Z,19.00
2022-09-09T10:00:16.549Z,18.80
2022-09-09T10:02:48.324Z,18.80
2022-09-09T10:05:27.070Z,18.90
2022-09-09T10:08:10.197Z,19.00
2022-09-09T14:51:16.775Z,18.90
2022-09-09T14:53:45.080Z,19.10
2022-09-09T14:56:15.402Z,19.20
2022-09-09T14:58:42.632Z,19.30
2022-09-09T15:01:12.417Z,19.40
2022-09-09T15:03:41.194Z,19.40
2022-09-09T15:06:15.253Z,19.40
2022-09-09T15:08:44.732Z,19.40
2022-09-09T15:11:13.815Z,19.50
2022-09-09T15:13:42.536Z,19.50
2022-09-09T15:16:18.506Z,19.40
2022-09-09T15:18:47.233Z,19.50
2022-09-09T15:21:17.224Z,19.50
2022-09-09T15:23:44.629Z,19.50
2022-09-09T15:26:15.062Z,19.30
2022-09-09T15:28:44.677Z,19.20
2022-09-09T15:31:23.514Z,19.20
2022-09-09T15:34:04.219Z,19.20
2022-09-09T15:36:35.966Z,19.10
2022-09-09T15:39:04.724Z,19.10
2022-09-09T15:41:34.867Z,19.10
2022-09-09T15:44:03.005Z,19.10
2022-09-09T15:46:38.865Z,19.10
2022-09-09T15:49:10.228Z,18.90
2022-09-09T15:51:44.429Z,18.90
2022-09-09T15:54:13.430Z,18.90
2022-09-09T15:56:41.427Z,19.10
2022-09-09T15:59:08.511Z,19.10
2022-09-09T16:01:37.124Z,19.20
2022-09-09T16:04:04.954Z,19.30
2022-09-09T16:06:32.731Z,19.20
2022-09-09T16:09:02.086Z,19.20
2022-09-09T16:11:36.053Z,19.20
2022-09-09T16:14:05.055Z,19.20
2022-09-09T16:16:32.392Z,19.20
2022-09-09T16:19:02.441Z,19.10
2022-09-09T16:21:32.443Z,19.10
2022-09-09T16:24:01.475Z,19.10
2022-09-09T16:26:29.849Z,19.00
2022-09-09T16:29:00.191Z,19.00
2022-09-09T16:31:28.641Z,18.90
2022-09-09T16:33:59.129Z,18.90
2022-09-09T16:36:28.826Z,18.90
2022-09-09T16:38:58.512Z,18.90
2022-09-09T16:41:27.835Z,19.00
2022-09-09T16:43:56.508Z,19.00
2022-09-09T16:46:25.497Z,18.90
2022-09-09T16:48:53.065Z,18.90
2022-09-09T16:51:28.947Z,18.90
2022-09-09T16:53:58.802Z,18.80
2022-09-09T16:56:27.942Z,18.80
2022-09-09T16:58:57.488Z,18.80
2022-09-09T17:01:32.737Z,18.80
2022-09-09T17:04:03.134Z,18.70
2022-09-09T17:06:42.308Z,18.80
2022-09-09T17:09:11.973Z,18.90
2022-09-09T17:11:40.414Z,18.90
2022-09-09T17:14:10.336Z,19.00
2022-09-09T17:16:40.427Z,18.90
2022-09-09T17:19:10.006Z,19.00
2022-09-09T17:21:49.573Z,19.00
2022-09-09T17:24:26.387Z,19.00
2022-09-09T17:26:55.361Z,19.00
2022-09-09T17:29:23.012Z,19.00
2022-09-09T17:31:50.736Z,19.00
2022-09-09T17:34:18.005Z,19.00
2022-09-09T17:36:45.184Z,19.10
2022-09-09T17:39:12.276Z,19.00
2022-09-09T17:41:40.511Z,18.90
2022-09-09T17:46:43.169Z,18.90
2022-09-09T17:49:16.051Z,19.00
2022-09-09T17:51:45.007Z,18.80
2022-09-09T17:54:17.290Z,18.70
2022-09-09T17:56:45.199Z,18.70
2022-09-09T18:01:47.107Z,18.80
2022-09-09T18:04:16.900Z,18.70
2022-09-09T18:06:49.487Z,18.70
2022-09-09T18:11:50.547Z,18.70
2022-09-09T18:14:21.439Z,18.70
2022-09-09T18:19:19.890Z,18.80
2022-09-09T18:21:47.943Z,18.70
2022-09-09T18:24:17.770Z,18.70
2022-09-09T18:26:45.679Z,18.70
2022-09-09T18:29:16.188Z,18.70
2022-09-09T18:36:55.217Z,18.70
2022-09-09T18:39:25.575Z,18.70
